sensor_id;sensor_type;location;lat;lon;timestamp;temperature;humidity
8130;DHT22;4106;52.532;13.408;2022-09-03T00:00:26;14.10;75.30
8130;DHT22;4106;52.532;13.408;2022-09-03T00:02:59;14.00;72.50
8130;DHT22;4106;52.532;13.408;2022-09-03T00:05:28;14.00;72.50
8130;DHT22;4106;52.532;13.408;2022-09-03T00:08:01;14.00;71.20
8130;DHT22;4106;52.532;13.408;2022-09-03T00:10:28;14.00;71.20
8130;DHT22;4106;52.532;13.408;2022-09-03T00:12:55;14.00;74.40
8130;DHT22;4106;52.532;13.408;2022-09-03T00:15:22;13.90;75.50
8130;DHT22;4106;52.532;13.408;2022-09-03T00:18:06;13.90;72.80
8130;DHT22;4106;52.532;13.408;2022-09-03T00:20:35;13.90;72.90
8130;DHT22;4106;52.532;13.408;2022-09-03T00:23:03;13.90;74.00
8130;DHT22;4106;52.532;13.408;2022-09-03T00:25:32;13.90;73.10
8130;DHT22;4106;52.532;13.408;2022-09-03T00:27:56;13.80;75.20
8130;DHT22;4106;52.532;13.408;2022-09-03T00:30:22;13.80;74.90
8130;DHT22;4106;52.532;13.408;2022-09-03T00:32:56;13.80;76.10
8130;DHT22;4106;52.532;13.408;2022-09-03T00:35:26;13.70;75.40
8130;DHT22;4106;52.532;13.408;2022-09-03T00:37:51;13.70;75.50
8130;DHT22;4106;52.532;13.408;2022-09-03T00:43:10;13.70;73.90
8130;DHT22;4106;52.532;13.408;2022-09-03T00:45:53;13.70;75.10
8130;DHT22;4106;52.532;13.408;2022-09-03T00:48:21;13.60;75.30
8130;DHT22;4106;52.532;13.408;2022-09-03T00:51:10;13.60;76.00
8130;DHT22;4106;52.532;13.408;2022-09-03T00:53:58;13.60;75.90
8130;DHT22;4106;52.532;13.408;2022-09-03T00:59:20;13.50;74.90
8130;DHT22;4106;52.532;13.408;2022-09-03T01:01:47;13.50;75.00
8130;DHT22;4106;52.532;13.408;2022-09-03T01:04:50;13.50;80.40
8130;DHT22;4106;52.532;13.408;2022-09-03T01:07:18;13.40;80.30
8130;DHT22;4106;52.532;13.408;2022-09-03T01:09:48;13.40;78.10
8130;DHT22;4106;52.532;13.408;2022-09-03T01:12:36;13.40;75.60
8130;DHT22;4106;52.532;13.408;2022-09-03T01:15:07;13.40;79.30
8130;DHT22;4106;52.532;13.408;2022-09-03T01:17:35;13.40;76.80
8130;DHT22;4106;52.532;13.408;2022-09-03T01:22:49;13.30;80.10
8130;DHT22;4106;52.532;13.408;2022-09-03T01:25:13;13.20;79.90
8130;DHT22;4106;52.532;13.408;2022-09-03T01:27:44;13.20;81.40
8130;DHT22;4106;52.532;13.408;2022-09-03T01:30:08;13.20;76.80
8130;DHT22;4106;52.532;13.408;2022-09-03T01:35:37;13.30;77.90
8130;DHT22;4106;52.532;13.408;2022-09-03T01:38:43;13.30;78.00
8130;DHT22;4106;52.532;13.408;2022-09-03T01:41:00;13.30;76.30
8130;DHT22;4106;52.532;13.408;2022-09-03T01:43:41;13.20;78.00
8130;DHT22;4106;52.532;13.408;2022-09-03T01:46:09;13.20;76.60
8130;DHT22;4106;52.532;13.408;2022-09-03T01:48:43;13.20;78.30
8130;DHT22;4106;52.532;13.408;2022-09-03T01:51:17;13.20;78.50
8130;DHT22;4106;52.532;13.408;2022-09-03T01:59:38;13.30;81.90
8130;DHT22;4106;52.532;13.408;2022-09-03T02:02:06;13.30;81.70
8130;DHT22;4106;52.532;13.408;2022-09-03T02:04:33;13.30;76.10
8130;DHT22;4106;52.532;13.408;2022-09-03T02:07:00;13.20;79.70
8130;DHT22;4106;52.532;13.408;2022-09-03T02:09:30;13.20;79.40
8130;DHT22;4106;52.532;13.408;2022-09-03T02:12:13;13.20;77.80
8130;DHT22;4106;52.532;13.408;2022-09-03T02:14:40;13.20;80.90
8130;DHT22;4106;52.532;13.408;2022-09-03T02:17:08;13.10;80.90
8130;DHT22;4106;52.532;13.408;2022-09-03T02:19:35;13.10;78.70
8130;DHT22;4106;52.532;13.408;2022-09-03T02:22:02;13.10;81.30
8130;DHT22;4106;52.532;13.408;2022-09-03T02:24:29;13.10;79.20
8130;DHT22;4106;52.532;13.408;2022-09-03T02:26:56;13.10;78.10
8130;DHT22;4106;52.532;13.408;2022-09-03T02:29:25;13.10;81.10
8130;DHT22;4106;52.532;13.408;2022-09-03T02:31:51;13.10;78.60
8130;DHT22;4106;52.532;13.408;2022-09-03T02:34:18;13.00;80.90
8130;DHT22;4106;52.532;13.408;2022-09-03T02:36:45;13.00;79.40
8130;DHT22;4106;52.532;13.408;2022-09-03T02:39:13;13.00;77.60
8130;DHT22;4106;52.532;13.408;2022-09-03T02:41:41;12.90;83.30
8130;DHT22;4106;52.532;13.408;2022-09-03T02:44:12;12.90;83.20
8130;DHT22;4106;52.532;13.408;2022-09-03T02:46:39;13.00;79.90
8130;DHT22;4106;52.532;13.408;2022-09-03T02:49:05;13.00;83.00
8130;DHT22;4106;52.532;13.408;2022-09-03T02:51:34;13.00;81.60
8130;DHT22;4106;52.532;13.408;2022-09-03T02:54:00;13.00;81.40
8130;DHT22;4106;52.532;13.408;2022-09-03T02:56:27;13.00;79.20
8130;DHT22;4106;52.532;13.408;2022-09-03T02:58:55;12.90;80.80
8130;DHT22;4106;52.532;13.408;2022-09-03T03:01:23;12.90;82.80
8130;DHT22;4106;52.532;13.408;2022-09-03T03:03:51;12.90;81.00
8130;DHT22;4106;52.532;13.408;2022-09-03T03:06:19;12.80;83.30
8130;DHT22;4106;52.532;13.408;2022-09-03T03:08:47;12.80;83.30
8130;DHT22;4106;52.532;13.408;2022-09-03T03:11:14;12.80;80.80
8130;DHT22;4106;52.532;13.408;2022-09-03T03:13:41;12.80;81.70
8130;DHT22;4106;52.532;13.408;2022-09-03T03:16:08;12.80;80.40
8130;DHT22;4106;52.532;13.408;2022-09-03T03:18:35;12.70;79.30
8130;DHT22;4106;52.532;13.408;2022-09-03T03:21:05;12.70;82.30
8130;DHT22;4106;52.532;13.408;2022-09-03T03:23:32;12.80;80.80
8130;DHT22;4106;52.532;13.408;2022-09-03T03:26:00;12.80;82.40
8130;DHT22;4106;52.532;13.408;2022-09-03T03:28:27;12.70;83.80
8130;DHT22;4106;52.532;13.408;2022-09-03T03:30:54;12.80;80.90
8130;DHT22;4106;52.532;13.408;2022-09-03T03:33:21;12.70;83.00
8130;DHT22;4106;52.532;13.408;2022-09-03T03:35:48;12.70;82.10
8130;DHT22;4106;52.532;13.408;2022-09-03T03:38:16;12.70;83.50
8130;DHT22;4106;52.532;13.408;2022-09-03T03:40:43;12.60;83.50
8130;DHT22;4106;52.532;13.408;2022-09-03T03:43:10;12.70;83.10
8130;DHT22;4106;52.532;13.408;2022-09-03T03:45:37;12.70;79.90
8130;DHT22;4106;52.532;13.408;2022-09-03T03:48:04;12.70;85.20
8130;DHT22;4106;52.532;13.408;2022-09-03T03:50:32;12.70;81.50
8130;DHT22;4106;52.532;13.408;2022-09-03T03:52:59;12.70;83.20
8130;DHT22;4106;52.532;13.408;2022-09-03T03:55:26;12.70;82.30
8130;DHT22;4106;52.532;13.408;2022-09-03T03:57:54;12.80;83.70
8130;DHT22;4106;52.532;13.408;2022-09-03T04:00:22;12.80;84.90
8130;DHT22;4106;52.532;13.408;2022-09-03T04:02:50;12.90;82.90
8130;DHT22;4106;52.532;13.408;2022-09-03T04:05:19;12.90;81.40
8130;DHT22;4106;52.532;13.408;2022-09-03T04:07:46;12.90;81.50
8130;DHT22;4106;52.532;13.408;2022-09-03T04:10:14;13.00;87.00
8130;DHT22;4106;52.532;13.408;2022-09-03T04:12:42;13.00;84.50
8130;DHT22;4106;52.532;13.408;2022-09-03T04:15:10;13.00;81.80
8130;DHT22;4106;52.532;13.408;2022-09-03T04:17:37;13.00;81.70
8130;DHT22;4106;52.532;13.408;2022-09-03T04:20:05;13.00;84.60
8130;DHT22;4106;52.532;13.408;2022-09-03T04:22:33;13.10;81.90
8130;DHT22;4106;52.532;13.408;2022-09-03T04:25:01;13.00;82.90
8130;DHT22;4106;52.532;13.408;2022-09-03T04:27:29;13.00;84.80
8130;DHT22;4106;52.532;13.408;2022-09-03T04:29:56;13.00;84.90
8130;DHT22;4106;52.532;13.408;2022-09-03T04:32:23;12.90;81.40
8130;DHT22;4106;52.532;13.408;2022-09-03T04:34:56;13.00;84.90
8130;DHT22;4106;52.532;13.408;2022-09-03T04:37:24;13.00;84.80
8130;DHT22;4106;52.532;13.408;2022-09-03T04:39:51;13.00;84.50
8130;DHT22;4106;52.532;13.408;2022-09-03T04:42:18;13.00;87.10
8130;DHT22;4106;52.532;13.408;2022-09-03T04:44:45;13.10;84.60
8130;DHT22;4106;52.532;13.408;2022-09-03T04:47:13;13.00;85.20
8130;DHT22;4106;52.532;13.408;2022-09-03T04:49:40;13.00;81.90
8130;DHT22;4106;52.532;13.408;2022-09-03T04:52:08;13.10;87.00
8130;DHT22;4106;52.532;13.408;2022-09-03T04:54:35;13.10;82.00
8130;DHT22;4106;52.532;13.408;2022-09-03T04:57:03;13.10;82.00
8130;DHT22;4106;52.532;13.408;2022-09-03T04:59:30;13.20;86.40
8130;DHT22;4106;52.532;13.408;2022-09-03T05:01:57;13.20;84.90
8130;DHT22;4106;52.532;13.408;2022-09-03T05:04:24;13.20;84.10
8130;DHT22;4106;52.532;13.408;2022-09-03T05:06:52;13.30;83.20
8130;DHT22;4106;52.532;13.408;2022-09-03T05:09:19;13.30;85.60
8130;DHT22;4106;52.532;13.408;2022-09-03T05:11:46;13.30;84.40
8130;DHT22;4106;52.532;13.408;2022-09-03T05:14:13;13.30;85.40
8130;DHT22;4106;52.532;13.408;2022-09-03T05:16:41;13.30;82.90
8130;DHT22;4106;52.532;13.408;2022-09-03T05:19:08;13.20;83.40
8130;DHT22;4106;52.532;13.408;2022-09-03T05:21:35;13.20;85.20
8130;DHT22;4106;52.532;13.408;2022-09-03T05:24:03;13.20;87.30
8130;DHT22;4106;52.532;13.408;2022-09-03T05:26:31;13.20;87.30
8130;DHT22;4106;52.532;13.408;2022-09-03T05:28:58;13.20;84.60
8130;DHT22;4106;52.532;13.408;2022-09-03T05:31:25;13.20;86.30
8130;DHT22;4106;52.532;13.408;2022-09-03T05:33:53;13.30;88.30
8130;DHT22;4106;52.532;13.408;2022-09-03T05:36:21;13.30;88.60
8130;DHT22;4106;52.532;13.408;2022-09-03T05:38:48;13.30;88.00
8130;DHT22;4106;52.532;13.408;2022-09-03T05:41:15;13.40;85.30
8130;DHT22;4106;52.532;13.408;2022-09-03T05:43:43;13.40;89.30
8130;DHT22;4106;52.532;13.408;2022-09-03T05:46:11;13.50;87.50
8130;DHT22;4106;52.532;13.408;2022-09-03T05:48:38;13.50;87.60
8130;DHT22;4106;52.532;13.408;2022-09-03T05:51:08;13.60;89.30
8130;DHT22;4106;52.532;13.408;2022-09-03T05:53:36;13.60;85.80
8130;DHT22;4106;52.532;13.408;2022-09-03T05:56:05;13.50;86.70
8130;DHT22;4106;52.532;13.408;2022-09-03T05:58:33;13.40;86.50
8130;DHT22;4106;52.532;13.408;2022-09-03T06:03:33;13.40;88.00
8130;DHT22;4106;52.532;13.408;2022-09-03T06:06:00;13.40;88.40
8130;DHT22;4106;52.532;13.408;2022-09-03T06:08:27;13.50;88.10
8130;DHT22;4106;52.532;13.408;2022-09-03T06:10:57;13.60;87.70
8130;DHT22;4106;52.532;13.408;2022-09-03T06:13:24;13.80;88.70
8130;DHT22;4106;52.532;13.408;2022-09-03T06:15:56;14.00;86.60
8130;DHT22;4106;52.532;13.408;2022-09-03T06:18:23;14.60;85.30
8130;DHT22;4106;52.532;13.408;2022-09-03T06:20:54;14.80;85.70
8130;DHT22;4106;52.532;13.408;2022-09-03T06:23:22;14.90;84.70
8130;DHT22;4106;52.532;13.408;2022-09-03T06:25:59;15.00;84.10
8130;DHT22;4106;52.532;13.408;2022-09-03T06:28:27;15.10;84.60
8130;DHT22;4106;52.532;13.408;2022-09-03T06:30:58;15.20;81.80
8130;DHT22;4106;52.532;13.408;2022-09-03T06:33:25;15.20;81.80
8130;DHT22;4106;52.532;13.408;2022-09-03T06:35:53;15.60;84.10
8130;DHT22;4106;52.532;13.408;2022-09-03T06:38:21;15.60;84.00
8130;DHT22;4106;52.532;13.408;2022-09-03T06:40:53;15.60;79.70
8130;DHT22;4106;52.532;13.408;2022-09-03T06:43:19;15.60;82.90
8130;DHT22;4106;52.532;13.408;2022-09-03T06:45:54;15.60;78.80
8130;DHT22;4106;52.532;13.408;2022-09-03T06:48:21;15.90;82.00
8130;DHT22;4106;52.532;13.408;2022-09-03T06:50:58;16.00;79.30
8130;DHT22;4106;52.532;13.408;2022-09-03T06:53:25;16.00;79.20
8130;DHT22;4106;52.532;13.408;2022-09-03T06:55:58;16.10;79.70
8130;DHT22;4106;52.532;13.408;2022-09-03T06:58:27;16.10;79.70
8130;DHT22;4106;52.532;13.408;2022-09-03T07:00:52;16.00;79.60
8130;DHT22;4106;52.532;13.408;2022-09-03T07:03:19;16.00;79.60
8130;DHT22;4106;52.532;13.408;2022-09-03T07:05:46;16.00;82.20
8130;DHT22;4106;52.532;13.408;2022-09-03T07:08:14;16.30;77.80
8130;DHT22;4106;52.532;13.408;2022-09-03T07:10:44;16.40;78.90
8130;DHT22;4106;52.532;13.408;2022-09-03T07:13:08;16.70;76.00
8130;DHT22;4106;52.532;13.408;2022-09-03T07:15:36;16.80;81.10
8130;DHT22;4106;52.532;13.408;2022-09-03T07:18:03;16.80;81.30
8130;DHT22;4106;52.532;13.408;2022-09-03T07:20:30;16.90;79.30
8130;DHT22;4106;52.532;13.408;2022-09-03T07:22:58;16.90;75.70
8130;DHT22;4106;52.532;13.408;2022-09-03T07:25:25;16.80;77.10
8130;DHT22;4106;52.532;13.408;2022-09-03T07:27:52;16.80;77.40
8130;DHT22;4106;52.532;13.408;2022-09-03T07:30:19;16.90;75.60
8130;DHT22;4106;52.532;13.408;2022-09-03T07:32:46;17.00;76.00
8130;DHT22;4106;52.532;13.408;2022-09-03T07:35:14;17.00;75.40
8130;DHT22;4106;52.532;13.408;2022-09-03T07:37:41;17.20;77.40
8130;DHT22;4106;52.532;13.408;2022-09-03T07:40:09;17.40;73.90
8130;DHT22;4106;52.532;13.408;2022-09-03T07:42:36;17.50;76.00
8130;DHT22;4106;52.532;13.408;2022-09-03T07:45:06;17.50;75.10
8130;DHT22;4106;52.532;13.408;2022-09-03T07:47:33;17.60;75.50
8130;DHT22;4106;52.532;13.408;2022-09-03T07:50:00;17.80;73.90
8130;DHT22;4106;52.532;13.408;2022-09-03T07:52:28;17.90;73.50
8130;DHT22;4106;52.532;13.408;2022-09-03T07:54:55;18.10;71.10
8130;DHT22;4106;52.532;13.408;2022-09-03T07:57:22;18.20;72.20
8130;DHT22;4106;52.532;13.408;2022-09-03T07:59:49;18.30;74.10
8130;DHT22;4106;52.532;13.408;2022-09-03T08:02:16;18.50;71.70
8130;DHT22;4106;52.532;13.408;2022-09-03T08:04:44;19.00;70.10
8130;DHT22;4106;52.532;13.408;2022-09-03T08:07:12;18.90;69.90
8130;DHT22;4106;52.532;13.408;2022-09-03T08:09:39;19.40;72.50
8130;DHT22;4106;52.532;13.408;2022-09-03T08:12:07;19.60;67.70
8130;DHT22;4106;52.532;13.408;2022-09-03T08:14:35;19.50;68.90
8130;DHT22;4106;52.532;13.408;2022-09-03T08:17:03;19.10;66.40
8130;DHT22;4106;52.532;13.408;2022-09-03T08:19:31;19.10;66.30
8130;DHT22;4106;52.532;13.408;2022-09-03T08:21:58;18.90;69.60
8130;DHT22;4106;52.532;13.408;2022-09-03T08:24:25;18.80;68.10
8130;DHT22;4106;52.532;13.408;2022-09-03T08:26:52;18.90;69.60
8130;DHT22;4106;52.532;13.408;2022-09-03T08:29:20;19.10;67.00
8130;DHT22;4106;52.532;13.408;2022-09-03T08:31:47;19.20;65.60
8130;DHT22;4106;52.532;13.408;2022-09-03T08:34:14;19.20;67.00
8130;DHT22;4106;52.532;13.408;2022-09-03T08:36:41;19.20;65.80
8130;DHT22;4106;52.532;13.408;2022-09-03T08:39:09;19.00;68.70
8130;DHT22;4106;52.532;13.408;2022-09-03T08:41:47;18.80;69.90
8130;DHT22;4106;52.532;13.408;2022-09-03T08:44:54;18.60;70.70
8130;DHT22;4106;52.532;13.408;2022-09-03T08:47:08;18.60;70.00
8130;DHT22;4106;52.532;13.408;2022-09-03T08:49:59;18.40;71.00
8130;DHT22;4106;52.532;13.408;2022-09-03T08:55:27;18.40;70.00
8130;DHT22;4106;52.532;13.408;2022-09-03T08:58:15;18.40;68.30
8130;DHT22;4106;52.532;13.408;2022-09-03T09:00:56;18.40;68.30
8130;DHT22;4106;52.532;13.408;2022-09-03T09:06:44;18.50;70.30
8130;DHT22;4106;52.532;13.408;2022-09-03T09:09:14;18.50;69.70
8130;DHT22;4106;52.532;13.408;2022-09-03T09:11:53;18.60;68.90
8130;DHT22;4106;52.532;13.408;2022-09-03T09:14:28;18.60;68.60
8130;DHT22;4106;52.532;13.408;2022-09-03T09:16:58;18.70;72.30
8130;DHT22;4106;52.532;13.408;2022-09-03T09:19:56;18.70;68.20
8130;DHT22;4106;52.532;13.408;2022-09-03T09:22:53;18.80;72.00
8130;DHT22;4106;52.532;13.408;2022-09-03T09:25:03;18.90;71.30
8130;DHT22;4106;52.532;13.408;2022-09-03T09:27:28;19.00;68.70
8130;DHT22;4106;52.532;13.408;2022-09-03T09:29:56;19.00;70.20
8130;DHT22;4106;52.532;13.408;2022-09-03T09:32:23;19.10;70.30
8130;DHT22;4106;52.532;13.408;2022-09-03T09:34:50;19.20;68.70
8130;DHT22;4106;52.532;13.408;2022-09-03T09:37:17;19.30;67.40
8130;DHT22;4106;52.532;13.408;2022-09-03T09:39:55;19.30;66.30
8130;DHT22;4106;52.532;13.408;2022-09-03T09:42:22;19.30;66.60
8130;DHT22;4106;52.532;13.408;2022-09-03T09:44:48;19.30;66.50
8130;DHT22;4106;52.532;13.408;2022-09-03T09:47:21;19.40;67.40
8130;DHT22;4106;52.532;13.408;2022-09-03T09:49:51;19.50;66.90
8130;DHT22;4106;52.532;13.408;2022-09-03T09:52:18;19.50;64.10
8130;DHT22;4106;52.532;13.408;2022-09-03T09:54:45;19.60;63.60
8130;DHT22;4106;52.532;13.408;2022-09-03T09:57:20;19.60;62.20
8130;DHT22;4106;52.532;13.408;2022-09-03T09:59:43;19.70;63.00
8130;DHT22;4106;52.532;13.408;2022-09-03T10:02:12;19.70;63.00
8130;DHT22;4106;52.532;13.408;2022-09-03T10:04:39;19.80;62.60
8130;DHT22;4106;52.532;13.408;2022-09-03T10:09:40;19.90;62.60
8130;DHT22;4106;52.532;13.408;2022-09-03T10:12:13;20.00;61.90
8130;DHT22;4106;52.532;13.408;2022-09-03T10:14:41;20.00;62.30
8130;DHT22;4106;52.532;13.408;2022-09-03T10:17:16;20.10;65.60
8130;DHT22;4106;52.532;13.408;2022-09-03T10:19:45;20.20;62.10
8130;DHT22;4106;52.532;13.408;2022-09-03T10:22:12;20.20;59.10
8130;DHT22;4106;52.532;13.408;2022-09-03T10:24:57;20.30;60.30
8130;DHT22;4106;52.532;13.408;2022-09-03T10:27:24;20.40;61.10
8130;DHT22;4106;52.532;13.408;2022-09-03T10:29:51;20.30;60.80
8130;DHT22;4106;52.532;13.408;2022-09-03T10:32:22;20.40;60.00
8130;DHT22;4106;52.532;13.408;2022-09-03T10:34:50;20.60;64.30
8130;DHT22;4106;52.532;13.408;2022-09-03T10:37:22;20.60;63.50
8130;DHT22;4106;52.532;13.408;2022-09-03T10:40:00;20.50;59.50
8130;DHT22;4106;52.532;13.408;2022-09-03T10:42:33;20.60;56.60
8130;DHT22;4106;52.532;13.408;2022-09-03T10:44:59;20.90;62.80
8130;DHT22;4106;52.532;13.408;2022-09-03T10:47:36;20.90;63.20
8130;DHT22;4106;52.532;13.408;2022-09-03T10:50:08;21.10;64.80
8130;DHT22;4106;52.532;13.408;2022-09-03T10:52:38;21.60;56.70
8130;DHT22;4106;52.532;13.408;2022-09-03T10:55:23;21.60;56.60
8130;DHT22;4106;52.532;13.408;2022-09-03T10:57:50;22.10;57.90
8130;DHT22;4106;52.532;13.408;2022-09-03T11:00:15;22.50;55.90
8130;DHT22;4106;52.532;13.408;2022-09-03T11:03:04;22.50;59.30
8130;DHT22;4106;52.532;13.408;2022-09-03T11:05:31;22.60;56.20
8130;DHT22;4106;52.532;13.408;2022-09-03T11:07:59;22.80;56.30
8130;DHT22;4106;52.532;13.408;2022-09-03T11:10:28;23.30;56.50
8130;DHT22;4106;52.532;13.408;2022-09-03T11:13:08;23.20;56.80
8130;DHT22;4106;52.532;13.408;2022-09-03T11:15:40;23.20;56.70
8130;DHT22;4106;52.532;13.408;2022-09-03T11:18:25;23.40;56.80
8130;DHT22;4106;52.532;13.408;2022-09-03T11:20:52;23.70;55.80
8130;DHT22;4106;52.532;13.408;2022-09-03T11:23:18;24.10;52.40
8130;DHT22;4106;52.532;13.408;2022-09-03T11:25:50;24.30;53.20
8130;DHT22;4106;52.532;13.408;2022-09-03T11:31:05;23.70;52.40
8130;DHT22;4106;52.532;13.408;2022-09-03T11:33:31;23.70;52.10
8130;DHT22;4106;52.532;13.408;2022-09-03T11:35:59;23.80;51.50
8130;DHT22;4106;52.532;13.408;2022-09-03T11:38:27;24.10;53.60
8130;DHT22;4106;52.532;13.408;2022-09-03T11:40:57;24.30;50.90
8130;DHT22;4106;52.532;13.408;2022-09-03T11:43:27;24.60;52.50
8130;DHT22;4106;52.532;13.408;2022-09-03T11:48:45;24.50;49.70
8130;DHT22;4106;52.532;13.408;2022-09-03T11:51:19;24.50;49.70
8130;DHT22;4106;52.532;13.408;2022-09-03T11:53:52;24.30;50.80
8130;DHT22;4106;52.532;13.408;2022-09-03T11:56:19;24.10;50.30
8130;DHT22;4106;52.532;13.408;2022-09-03T11:58:46;24.00;52.20
8130;DHT22;4106;52.532;13.408;2022-09-03T12:01:14;24.20;51.30
8130;DHT22;4106;52.532;13.408;2022-09-03T12:03:47;24.00;52.30
8130;DHT22;4106;52.532;13.408;2022-09-03T12:06:26;23.90;50.70
8130;DHT22;4106;52.532;13.408;2022-09-03T12:09:03;23.90;49.70
8130;DHT22;4106;52.532;13.408;2022-09-03T12:11:52;24.20;50.00
8130;DHT22;4106;52.532;13.408;2022-09-03T12:14:20;24.30;50.50
8130;DHT22;4106;52.532;13.408;2022-09-03T12:17:03;24.30;50.50
8130;DHT22;4106;52.532;13.408;2022-09-03T12:19:46;24.10;50.90
8130;DHT22;4106;52.532;13.408;2022-09-03T12:22:12;24.00;49.10
8130;DHT22;4106;52.532;13.408;2022-09-03T12:24:39;23.90;50.40
8130;DHT22;4106;52.532;13.408;2022-09-03T12:27:08;23.90;48.70
8130;DHT22;4106;52.532;13.408;2022-09-03T12:29:35;24.20;49.50
8130;DHT22;4106;52.532;13.408;2022-09-03T12:32:07;24.20;49.40
8130;DHT22;4106;52.532;13.408;2022-09-03T12:34:33;24.30;50.30
8130;DHT22;4106;52.532;13.408;2022-09-03T12:37:00;24.30;47.90
8130;DHT22;4106;52.532;13.408;2022-09-03T12:39:27;24.40;47.80
8130;DHT22;4106;52.532;13.408;2022-09-03T12:42:05;24.30;49.80
8130;DHT22;4106;52.532;13.408;2022-09-03T12:44:40;24.50;47.30
8130;DHT22;4106;52.532;13.408;2022-09-03T12:47:10;24.70;47.30
8130;DHT22;4106;52.532;13.408;2022-09-03T12:49:40;25.20;46.80
8130;DHT22;4106;52.532;13.408;2022-09-03T12:52:10;25.20;46.70
8130;DHT22;4106;52.532;13.408;2022-09-03T12:54:36;25.40;46.20
8130;DHT22;4106;52.532;13.408;2022-09-03T12:57:02;25.60;45.60
8130;DHT22;4106;52.532;13.408;2022-09-03T12:59:30;25.70;46.70
8130;DHT22;4106;52.532;13.408;2022-09-03T13:01:59;25.90;45.90
8130;DHT22;4106;52.532;13.408;2022-09-03T13:04:28;25.60;45.50
8130;DHT22;4106;52.532;13.408;2022-09-03T13:06:59;25.60;46.10
8130;DHT22;4106;52.532;13.408;2022-09-03T13:09:23;25.60;46.10
8130;DHT22;4106;52.532;13.408;2022-09-03T13:11:50;25.70;45.80
8130;DHT22;4106;52.532;13.408;2022-09-03T13:14:17;25.50;45.70
8130;DHT22;4106;52.532;13.408;2022-09-03T13:17:05;25.10;46.70
8130;DHT22;4106;52.532;13.408;2022-09-03T13:25:29;24.90;45.70
8130;DHT22;4106;52.532;13.408;2022-09-03T13:27:56;25.30;46.60
8130;DHT22;4106;52.532;13.408;2022-09-03T13:30:22;25.00;45.60
8130;DHT22;4106;52.532;13.408;2022-09-03T13:35:27;24.70;46.20
8130;DHT22;4106;52.532;13.408;2022-09-03T13:37:54;24.60;45.20
8130;DHT22;4106;52.532;13.408;2022-09-03T13:40:34;24.50;46.40
8130;DHT22;4106;52.532;13.408;2022-09-03T13:43:19;24.50;46.50
8130;DHT22;4106;52.532;13.408;2022-09-03T13:45:44;25.10;45.00
8130;DHT22;4106;52.532;13.408;2022-09-03T13:48:15;25.10;45.00
8130;DHT22;4106;52.532;13.408;2022-09-03T13:50:49;25.30;45.30
8130;DHT22;4106;52.532;13.408;2022-09-03T13:53:17;24.70;45.60
8130;DHT22;4106;52.532;13.408;2022-09-03T13:55:46;24.70;45.50
8130;DHT22;4106;52.532;13.408;2022-09-03T13:58:26;24.80;44.20
8130;DHT22;4106;52.532;13.408;2022-09-03T14:01:00;25.20;44.80
8130;DHT22;4106;52.532;13.408;2022-09-03T14:03:25;25.20;44.80
8130;DHT22;4106;52.532;13.408;2022-09-03T14:06:18;25.30;45.40
8130;DHT22;4106;52.532;13.408;2022-09-03T14:14:03;25.70;43.90
8130;DHT22;4106;52.532;13.408;2022-09-03T14:16:37;26.00;43.90
8130;DHT22;4106;52.532;13.408;2022-09-03T14:19:06;26.00;44.40
8130;DHT22;4106;52.532;13.408;2022-09-03T14:21:35;25.80;45.00
8130;DHT22;4106;52.532;13.408;2022-09-03T14:24:06;25.90;43.70
8130;DHT22;4106;52.532;13.408;2022-09-03T14:26:33;25.90;43.80
8130;DHT22;4106;52.532;13.408;2022-09-03T14:29:15;26.00;43.80
8130;DHT22;4106;52.532;13.408;2022-09-03T14:31:51;26.00;43.80
8130;DHT22;4106;52.532;13.408;2022-09-03T14:34:30;25.60;43.80
8130;DHT22;4106;52.532;13.408;2022-09-03T14:37:03;25.60;43.90
8130;DHT22;4106;52.532;13.408;2022-09-03T14:42:26;24.80;45.30
8130;DHT22;4106;52.532;13.408;2022-09-03T14:45:09;24.40;44.30
8130;DHT22;4106;52.532;13.408;2022-09-03T14:47:53;24.30;44.90
8130;DHT22;4106;52.532;13.408;2022-09-03T14:50:27;24.50;44.90
8130;DHT22;4106;52.532;13.408;2022-09-03T14:52:57;24.70;44.60
8130;DHT22;4106;52.532;13.408;2022-09-03T14:58:21;24.90;44.70
8130;DHT22;4106;52.532;13.408;2022-09-03T15:01:03;25.00;44.10
8130;DHT22;4106;52.532;13.408;2022-09-03T15:03:46;24.90;44.20
8130;DHT22;4106;52.532;13.408;2022-09-03T15:09:05;25.00;43.70
8130;DHT22;4106;52.532;13.408;2022-09-03T15:11:28;24.80;44.60
8130;DHT22;4106;52.532;13.408;2022-09-03T15:13:58;24.80;45.40
8130;DHT22;4106;52.532;13.408;2022-09-03T15:16:42;24.70;44.40
8130;DHT22;4106;52.532;13.408;2022-09-03T15:21:59;24.20;44.50
8130;DHT22;4106;52.532;13.408;2022-09-03T15:27:31;24.50;45.40
8130;DHT22;4106;52.532;13.408;2022-09-03T15:30:07;24.70;45.30
8130;DHT22;4106;52.532;13.408;2022-09-03T15:32:38;24.30;46.00
8130;DHT22;4106;52.532;13.408;2022-09-03T15:35:26;24.30;46.00
8130;DHT22;4106;52.532;13.408;2022-09-03T15:37:46;24.00;44.80
8130;DHT22;4106;52.532;13.408;2022-09-03T15:40:24;23.80;44.30
8130;DHT22;4106;52.532;13.408;2022-09-03T15:42:57;23.70;45.30
8130;DHT22;4106;52.532;13.408;2022-09-03T15:46:34;23.30;45.60
8130;DHT22;4106;52.532;13.408;2022-09-03T15:48:16;23.10;46.50
8130;DHT22;4106;52.532;13.408;2022-09-03T15:50:51;23.10;46.50
8130;DHT22;4106;52.532;13.408;2022-09-03T15:53:33;23.10;45.70
8130;DHT22;4106;52.532;13.408;2022-09-03T15:56:07;23.10;45.90
8130;DHT22;4106;52.532;13.408;2022-09-03T15:58:34;23.20;46.10
8130;DHT22;4106;52.532;13.408;2022-09-03T16:01:05;23.20;46.80
8130;DHT22;4106;52.532;13.408;2022-09-03T16:06:32;23.30;45.80
8130;DHT22;4106;52.532;13.408;2022-09-03T16:08:59;23.30;45.90
8130;DHT22;4106;52.532;13.408;2022-09-03T16:11:34;23.40;46.20
8130;DHT22;4106;52.532;13.408;2022-09-03T16:14:05;23.40;46.20
8130;DHT22;4106;52.532;13.408;2022-09-03T16:16:43;23.40;47.30
8130;DHT22;4106;52.532;13.408;2022-09-03T16:21:47;23.00;45.70
8130;DHT22;4106;52.532;13.408;2022-09-03T16:24:16;23.00;45.70
8130;DHT22;4106;52.532;13.408;2022-09-03T16:26:59;22.80;46.30
8130;DHT22;4106;52.532;13.408;2022-09-03T16:29:27;22.60;46.50
8130;DHT22;4106;52.532;13.408;2022-09-03T16:32:14;22.30;46.90
8130;DHT22;4106;52.532;13.408;2022-09-03T16:34:47;22.10;47.10
8130;DHT22;4106;52.532;13.408;2022-09-03T16:37:17;21.80;47.50
8130;DHT22;4106;52.532;13.408;2022-09-03T16:39:45;21.70;47.40
8130;DHT22;4106;52.532;13.408;2022-09-03T16:45:10;21.60;48.40
8130;DHT22;4106;52.532;13.408;2022-09-03T16:48:22;21.60;47.40
8130;DHT22;4106;52.532;13.408;2022-09-03T16:50:40;21.70;49.10
8130;DHT22;4106;52.532;13.408;2022-09-03T16:55:56;21.60;48.10
8130;DHT22;4106;52.532;13.408;2022-09-03T16:58:23;21.50;48.30
8130;DHT22;4106;52.532;13.408;2022-09-03T17:00:51;21.50;49.10
8130;DHT22;4106;52.532;13.408;2022-09-03T17:03:25;21.10;48.20
8130;DHT22;4106;52.532;13.408;2022-09-03T17:06:15;20.90;49.30
8130;DHT22;4106;52.532;13.408;2022-09-03T17:08:45;20.90;49.40
8130;DHT22;4106;52.532;13.408;2022-09-03T17:14:00;20.50;48.80
8130;DHT22;4106;52.532;13.408;2022-09-03T17:22:09;20.30;51.10
8130;DHT22;4106;52.532;13.408;2022-09-03T17:24:40;20.30;50.60
8130;DHT22;4106;52.532;13.408;2022-09-03T17:27:24;20.20;49.90